sensor_id;sensor_type;location;lat;lon;timestamp;P1;durP1;ratioP1;P2;durP2;ratioP2
2480;SDS011;57396;48.742;9.128;2024-01-15T00:02:02;26.60;;;12.23;;
2480;SDS011;57396;48.742;9.128;2024-01-15T00:04:28;26.00;;;12.90;;
2480;SDS011;57396;48.742;9.128;2024-01-15T00:06:53;20.97;;;10.97;;
2480;SDS011;57396;48.742;9.128;2024-01-15T00:09:19;24.70;;;12.20;;
2480;SDS011;57396;48.742;9.128;2024-01-15T00:11:44;24.10;;;11.40;;
2480;SDS011;57396;48.742;9.128;2024-01-15T00:14:10;25.73;;;11.23;;
2480;SDS011;57396;48.742;9.128;2024-01-15T00:16:35;21.80;;;10.40;;
2480;SDS011;57396;48.742;9.128;2024-01-15T00:19:01;24.60;;;11.87;;
2480;SDS011;57396;48.742;9.128;2024-01-15T00:21:26;20.87;;;11.00;;
2480;SDS011;57396;48.742;9.128;2024-01-15T00:23:53;21.90;;;10.90;;
2480;SDS011;57396;48.742;9.128;2024-01-15T00:26:18;22.33;;;10.30;;
2480;SDS011;57396;48.742;9.128;2024-01-15T00:28:44;21.43;;;10.20;;
2480;SDS011;57396;48.742;9.128;2024-01-15T00:31:09;21.17;;;10.50;;
2480;SDS011;57396;48.742;9.128;2024-01-15T00:33:35;20.83;;;10.40;;
2480;SDS011;57396;48.742;9.128;2024-01-15T00:36:00;19.53;;;9.63;;
2480;SDS011;57396;48.742;9.128;2024-01-15T00:38:26;21.53;;;10.17;;
2480;SDS011;57396;48.742;9.128;2024-01-15T00:40:51;19.53;;;10.57;;
2480;SDS011;57396;48.742;9.128;2024-01-15T00:43:16;18.83;;;9.20;;
2480;SDS011;57396;48.742;9.128;2024-01-15T00:45:45;20.53;;;10.20;;
2480;SDS011;57396;48.742;9.128;2024-01-15T00:48:10;17.97;;;9.40;;
2480;SDS011;57396;48.742;9.128;2024-01-15T00:50:36;20.27;;;10.40;;
2480;SDS011;57396;48.742;9.128;2024-01-15T00:53:01;20.70;;;9.67;;
2480;SDS011;57396;48.742;9.128;2024-01-15T00:55:27;19.00;;;9.40;;
2480;SDS011;57396;48.742;9.128;2024-01-15T00:57:53;21.50;;;10.97;;
2480;SDS011;57396;48.742;9.128;2024-01-15T01:00:19;24.20;;;10.20;;
2480;SDS011;57396;48.742;9.128;2024-01-15T01:02:44;22.13;;;9.90;;
2480;SDS011;57396;48.742;9.128;2024-01-15T01:05:10;22.13;;;10.80;;
2480;SDS011;57396;48.742;9.128;2024-01-15T01:07:35;20.87;;;9.67;;
2480;SDS011;57396;48.742;9.128;2024-01-15T01:10:01;19.43;;;10.03;;
2480;SDS011;57396;48.742;9.128;2024-01-15T01:12:26;22.00;;;10.27;;
2480;SDS011;57396;48.742;9.128;2024-01-15T01:14:52;24.57;;;8.77;;
2480;SDS011;57396;48.742;9.128;2024-01-15T01:17:18;22.27;;;10.07;;
2480;SDS011;57396;48.742;9.128;2024-01-15T01:19:43;20.77;;;10.03;;
2480;SDS011;57396;48.742;9.128;2024-01-15T01:22:08;21.93;;;9.93;;
2480;SDS011;57396;48.742;9.128;2024-01-15T01:24:34;21.60;;;10.20;;
2480;SDS011;57396;48.742;9.128;2024-01-15T01:27:00;18.13;;;8.90;;
2480;SDS011;57396;48.742;9.128;2024-01-15T01:29:26;23.20;;;10.17;;
2480;SDS011;57396;48.742;9.128;2024-01-15T01:31:52;22.13;;;10.00;;
2480;SDS011;57396;48.742;9.128;2024-01-15T01:34:17;21.00;;;9.57;;
2480;SDS011;57396;48.742;9.128;2024-01-15T01:36:43;19.03;;;9.20;;
2480;SDS011;57396;48.742;9.128;2024-01-15T01:39:08;18.90;;;10.10;;
2480;SDS011;57396;48.742;9.128;2024-01-15T01:41:34;19.37;;;9.70;;
2480;SDS011;57396;48.742;9.128;2024-01-15T01:44:00;21.27;;;10.00;;
2480;SDS011;57396;48.742;9.128;2024-01-15T01:46:25;18.93;;;9.70;;
2480;SDS011;57396;48.742;9.128;2024-01-15T01:48:52;19.83;;;9.20;;
2480;SDS011;57396;48.742;9.128;2024-01-15T01:51:17;19.30;;;9.80;;
2480;SDS011;57396;48.742;9.128;2024-01-15T01:53:44;24.17;;;10.37;;
2480;SDS011;57396;48.742;9.128;2024-01-15T01:56:10;21.10;;;8.80;;
2480;SDS011;57396;48.742;9.128;2024-01-15T01:58:37;20.17;;;9.90;;
2480;SDS011;57396;48.742;9.128;2024-01-15T02:01:02;20.40;;;9.73;;
2480;SDS011;57396;48.742;9.128;2024-01-15T02:03:28;21.57;;;9.37;;
2480;SDS011;57396;48.742;9.128;2024-01-15T02:05:54;17.37;;;9.20;;
2480;SDS011;57396;48.742;9.128;2024-01-15T02:08:20;20.03;;;9.43;;
2480;SDS011;57396;48.742;9.128;2024-01-15T02:10:45;18.97;;;9.23;;
2480;SDS011;57396;48.742;9.128;2024-01-15T02:13:11;19.50;;;8.73;;
2480;SDS011;57396;48.742;9.128;2024-01-15T02:15:36;18.57;;;9.67;;
2480;SDS011;57396;48.742;9.128;2024-01-15T02:18:06;19.33;;;8.87;;
2480;SDS011;57396;48.742;9.128;2024-01-15T02:20:34;15.63;;;8.37;;
2480;SDS011;57396;48.742;9.128;2024-01-15T02:23:13;19.20;;;9.37;;
2480;SDS011;57396;48.742;9.128;2024-01-15T02:25:40;22.13;;;9.83;;
2480;SDS011;57396;48.742;9.128;2024-01-15T02:28:10;19.73;;;9.13;;
2480;SDS011;57396;48.742;9.128;2024-01-15T02:30:40;18.50;;;9.00;;
2480;SDS011;57396;48.742;9.128;2024-01-15T02:33:06;18.10;;;9.33;;
2480;SDS011;57396;48.742;9.128;2024-01-15T02:35:32;19.07;;;8.97;;
2480;SDS011;57396;48.742;9.128;2024-01-15T02:37:58;19.60;;;9.50;;
2480;SDS011;57396;48.742;9.128;2024-01-15T02:40:23;18.97;;;9.20;;
2480;SDS011;57396;48.742;9.128;2024-01-15T02:42:49;17.43;;;9.17;;
2480;SDS011;57396;48.742;9.128;2024-01-15T02:45:14;17.43;;;9.10;;
2480;SDS011;57396;48.742;9.128;2024-01-15T02:47:40;20.10;;;8.70;;
2480;SDS011;57396;48.742;9.128;2024-01-15T02:50:05;19.90;;;9.33;;
2480;SDS011;57396;48.742;9.128;2024-01-15T02:52:31;20.30;;;9.53;;
2480;SDS011;57396;48.742;9.128;2024-01-15T02:54:57;17.70;;;8.67;;
2480;SDS011;57396;48.742;9.128;2024-01-15T02:57:22;16.87;;;8.50;;
2480;SDS011;57396;48.742;9.128;2024-01-15T02:59:47;18.33;;;8.93;;
2480;SDS011;57396;48.742;9.128;2024-01-15T03:02:13;22.03;;;9.43;;
2480;SDS011;57396;48.742;9.128;2024-01-15T03:04:42;20.33;;;8.70;;
2480;SDS011;57396;48.742;9.128;2024-01-15T03:07:08;18.37;;;8.73;;
2480;SDS011;57396;48.742;9.128;2024-01-15T03:09:34;20.83;;;9.50;;
2480;SDS011;57396;48.742;9.128;2024-01-15T03:11:59;16.60;;;8.73;;
2480;SDS011;57396;48.742;9.128;2024-01-15T03:14:24;20.27;;;8.97;;
2480;SDS011;57396;48.742;9.128;2024-01-15T03:16:51;21.00;;;8.60;;
2480;SDS011;57396;48.742;9.128;2024-01-15T03:19:17;20.47;;;8.80;;
2480;SDS011;57396;48.742;9.128;2024-01-15T03:21:42;20.60;;;9.90;;
2480;SDS011;57396;48.742;9.128;2024-01-15T03:24:08;17.27;;;9.00;;
2480;SDS011;57396;48.742;9.128;2024-01-15T03:26:33;17.70;;;8.90;;
2480;SDS011;57396;48.742;9.128;2024-01-15T03:28:58;19.33;;;8.37;;
2480;SDS011;57396;48.742;9.128;2024-01-15T03:31:24;16.33;;;8.43;;
2480;SDS011;57396;48.742;9.128;2024-01-15T03:33:49;19.83;;;9.47;;
2480;SDS011;57396;48.742;9.128;2024-01-15T03:36:15;17.93;;;8.60;;
2480;SDS011;57396;48.742;9.128;2024-01-15T03:38:40;17.40;;;8.43;;
2480;SDS011;57396;48.742;9.128;2024-01-15T03:41:06;18.60;;;8.70;;
2480;SDS011;57396;48.742;9.128;2024-01-15T03:43:32;26.30;;;9.37;;
2480;SDS011;57396;48.742;9.128;2024-01-15T03:45:58;16.63;;;8.57;;
2480;SDS011;57396;48.742;9.128;2024-01-15T03:48:23;16.73;;;8.60;;
2480;SDS011;57396;48.742;9.128;2024-01-15T03:50:49;17.93;;;9.07;;
2480;SDS011;57396;48.742;9.128;2024-01-15T03:53:14;16.17;;;9.07;;
2480;SDS011;57396;48.742;9.128;2024-01-15T03:55:39;20.00;;;8.77;;
2480;SDS011;57396;48.742;9.128;2024-01-15T03:58:05;18.40;;;9.20;;
2480;SDS011;57396;48.742;9.128;2024-01-15T04:00:30;18.43;;;9.20;;
2480;SDS011;57396;48.742;9.128;2024-01-15T04:02:56;19.53;;;8.90;;
2480;SDS011;57396;48.742;9.128;2024-01-15T04:05:21;19.33;;;8.83;;
2480;SDS011;57396;48.742;9.128;2024-01-15T04:07:47;16.80;;;8.07;;
2480;SDS011;57396;48.742;9.128;2024-01-15T04:10:12;17.17;;;7.70;;
2480;SDS011;57396;48.742;9.128;2024-01-15T04:12:38;16.10;;;7.87;;
2480;SDS011;57396;48.742;9.128;2024-01-15T04:15:03;13.87;;;7.73;;
2480;SDS011;57396;48.742;9.128;2024-01-15T04:17:29;18.53;;;8.80;;
2480;SDS011;57396;48.742;9.128;2024-01-15T04:19:54;14.40;;;8.27;;
2480;SDS011;57396;48.742;9.128;2024-01-15T04:22:20;17.13;;;8.30;;
2480;SDS011;57396;48.742;9.128;2024-01-15T04:24:45;16.50;;;7.87;;
2480;SDS011;57396;48.742;9.128;2024-01-15T04:27:11;15.07;;;8.00;;
2480;SDS011;57396;48.742;9.128;2024-01-15T04:29:37;17.77;;;8.27;;
2480;SDS011;57396;48.742;9.128;2024-01-15T04:32:04;19.67;;;9.70;;
2480;SDS011;57396;48.742;9.128;2024-01-15T04:34:29;17.03;;;7.80;;
2480;SDS011;57396;48.742;9.128;2024-01-15T04:36:55;15.07;;;8.10;;
2480;SDS011;57396;48.742;9.128;2024-01-15T04:39:20;16.77;;;8.83;;
2480;SDS011;57396;48.742;9.128;2024-01-15T04:41:47;18.10;;;8.70;;
2480;SDS011;57396;48.742;9.128;2024-01-15T04:44:12;18.03;;;8.53;;
2480;SDS011;57396;48.742;9.128;2024-01-15T04:46:38;16.10;;;8.20;;
2480;SDS011;57396;48.742;9.128;2024-01-15T04:49:03;15.40;;;8.77;;
2480;SDS011;57396;48.742;9.128;2024-01-15T04:51:29;18.00;;;8.80;;
2480;SDS011;57396;48.742;9.128;2024-01-15T04:53:54;17.27;;;8.73;;
2480;SDS011;57396;48.742;9.128;2024-01-15T04:56:20;17.63;;;8.87;;
2480;SDS011;57396;48.742;9.128;2024-01-15T04:58:45;16.40;;;8.57;;
2480;SDS011;57396;48.742;9.128;2024-01-15T05:01:11;18.70;;;8.90;;
2480;SDS011;57396;48.742;9.128;2024-01-15T05:03:37;21.43;;;9.40;;
2480;SDS011;57396;48.742;9.128;2024-01-15T05:06:02;23.10;;;9.77;;
2480;SDS011;57396;48.742;9.128;2024-01-15T05:08:28;16.10;;;9.57;;
2480;SDS011;57396;48.742;9.128;2024-01-15T05:10:53;26.00;;;10.50;;
2480;SDS011;57396;48.742;9.128;2024-01-15T05:13:19;20.67;;;10.87;;
2480;SDS011;57396;48.742;9.128;2024-01-15T05:15:44;20.07;;;10.33;;
2480;SDS011;57396;48.742;9.128;2024-01-15T05:18:09;21.43;;;9.40;;
2480;SDS011;57396;48.742;9.128;2024-01-15T05:20:35;17.30;;;9.90;;
2480;SDS011;57396;48.742;9.128;2024-01-15T05:23:00;19.20;;;8.93;;
2480;SDS011;57396;48.742;9.128;2024-01-15T05:25:26;20.83;;;9.93;;
2480;SDS011;57396;48.742;9.128;2024-01-15T05:27:51;17.97;;;8.60;;
2480;SDS011;57396;48.742;9.128;2024-01-15T05:30:17;21.83;;;9.30;;
2480;SDS011;57396;48.742;9.128;2024-01-15T05:32:42;19.00;;;9.40;;
2480;SDS011;57396;48.742;9.128;2024-01-15T05:35:08;16.97;;;8.83;;
2480;SDS011;57396;48.742;9.128;2024-01-15T05:37:33;20.87;;;10.10;;
2480;SDS011;57396;48.742;9.128;2024-01-15T05:39:58;16.60;;;8.67;;
2480;SDS011;57396;48.742;9.128;2024-01-15T05:42:24;20.23;;;9.97;;
2480;SDS011;57396;48.742;9.128;2024-01-15T05:44:49;20.00;;;8.70;;
2480;SDS011;57396;48.742;9.128;2024-01-15T05:47:15;19.80;;;8.93;;
2480;SDS011;57396;48.742;9.128;2024-01-15T05:49:40;17.93;;;9.30;;
2480;SDS011;57396;48.742;9.128;2024-01-15T05:52:06;18.40;;;9.17;;
2480;SDS011;57396;48.742;9.128;2024-01-15T05:54:31;20.47;;;9.53;;
2480;SDS011;57396;48.742;9.128;2024-01-15T05:56:57;17.40;;;9.37;;
2480;SDS011;57396;48.742;9.128;2024-01-15T05:59:22;17.80;;;8.83;;
2480;SDS011;57396;48.742;9.128;2024-01-15T06:01:48;15.87;;;8.80;;
2480;SDS011;57396;48.742;9.128;2024-01-15T06:04:13;16.37;;;9.20;;
2480;SDS011;57396;48.742;9.128;2024-01-15T06:06:39;18.47;;;9.60;;
2480;SDS011;57396;48.742;9.128;2024-01-15T06:09:04;17.40;;;8.73;;
2480;SDS011;57396;48.742;9.128;2024-01-15T06:11:34;17.30;;;7.80;;
2480;SDS011;57396;48.742;9.128;2024-01-15T06:14:00;14.90;;;8.00;;
2480;SDS011;57396;48.742;9.128;2024-01-15T06:16:25;15.13;;;8.90;;
2480;SDS011;57396;48.742;9.128;2024-01-15T06:18:51;12.47;;;7.83;;
2480;SDS011;57396;48.742;9.128;2024-01-15T06:21:16;20.53;;;9.07;;
2480;SDS011;57396;48.742;9.128;2024-01-15T06:23:42;16.43;;;8.27;;
2480;SDS011;57396;48.742;9.128;2024-01-15T06:26:07;15.00;;;8.10;;
2480;SDS011;57396;48.742;9.128;2024-01-15T06:28:33;15.50;;;8.83;;
2480;SDS011;57396;48.742;9.128;2024-01-15T06:30:58;14.17;;;8.67;;
2480;SDS011;57396;48.742;9.128;2024-01-15T06:33:24;17.03;;;8.30;;
2480;SDS011;57396;48.742;9.128;2024-01-15T06:35:50;18.67;;;8.87;;
2480;SDS011;57396;48.742;9.128;2024-01-15T06:38:15;19.00;;;9.50;;
2480;SDS011;57396;48.742;9.128;2024-01-15T06:40:41;17.97;;;8.63;;
2480;SDS011;57396;48.742;9.128;2024-01-15T06:43:13;19.13;;;9.20;;
2480;SDS011;57396;48.742;9.128;2024-01-15T06:45:40;18.23;;;8.50;;
2480;SDS011;57396;48.742;9.128;2024-01-15T06:48:06;18.10;;;9.20;;
2480;SDS011;57396;48.742;9.128;2024-01-15T06:50:32;18.13;;;8.50;;
2480;SDS011;57396;48.742;9.128;2024-01-15T06:52:58;19.80;;;9.13;;
2480;SDS011;57396;48.742;9.128;2024-01-15T06:55:23;18.70;;;9.20;;
2480;SDS011;57396;48.742;9.128;2024-01-15T06:57:49;17.90;;;9.13;;
2480;SDS011;57396;48.742;9.128;2024-01-15T07:00:14;19.00;;;8.90;;
2480;SDS011;57396;48.742;9.128;2024-01-15T07:02:40;14.67;;;8.17;;
2480;SDS011;57396;48.742;9.128;2024-01-15T07:05:06;12.60;;;7.40;;
2480;SDS011;57396;48.742;9.128;2024-01-15T07:07:32;15.20;;;8.17;;
2480;SDS011;57396;48.742;9.128;2024-01-15T07:09:57;16.40;;;8.40;;
2480;SDS011;57396;48.742;9.128;2024-01-15T07:12:23;15.27;;;8.10;;
2480;SDS011;57396;48.742;9.128;2024-01-15T07:14:49;14.73;;;8.23;;
2480;SDS011;57396;48.742;9.128;2024-01-15T07:17:14;14.73;;;8.00;;
2480;SDS011;57396;48.742;9.128;2024-01-15T07:19:40;16.30;;;8.60;;
2480;SDS011;57396;48.742;9.128;2024-01-15T07:22:06;19.83;;;8.03;;
2480;SDS011;57396;48.742;9.128;2024-01-15T07:24:31;17.37;;;9.00;;
2480;SDS011;57396;48.742;9.128;2024-01-15T07:26:59;15.13;;;8.23;;
2480;SDS011;57396;48.742;9.128;2024-01-15T07:29:24;18.37;;;9.53;;
2480;SDS011;57396;48.742;9.128;2024-01-15T07:31:50;16.80;;;8.77;;
2480;SDS011;57396;48.742;9.128;2024-01-15T07:34:16;15.50;;;9.10;;
2480;SDS011;57396;48.742;9.128;2024-01-15T07:36:43;26.30;;;9.27;;
2480;SDS011;57396;48.742;9.128;2024-01-15T07:39:09;18.83;;;9.57;;
2480;SDS011;57396;48.742;9.128;2024-01-15T07:41:35;18.47;;;8.77;;
2480;SDS011;57396;48.742;9.128;2024-01-15T07:44:00;17.60;;;9.10;;
2480;SDS011;57396;48.742;9.128;2024-01-15T07:46:26;15.70;;;8.73;;
2480;SDS011;57396;48.742;9.128;2024-01-15T07:48:52;16.23;;;8.40;;
2480;SDS011;57396;48.742;9.128;2024-01-15T07:51:24;16.47;;;8.80;;
2480;SDS011;57396;48.742;9.128;2024-01-15T07:53:50;16.37;;;8.40;;
2480;SDS011;57396;48.742;9.128;2024-01-15T07:56:16;14.97;;;8.00;;
2480;SDS011;57396;48.742;9.128;2024-01-15T07:58:41;13.30;;;7.40;;
2480;SDS011;57396;48.742;9.128;2024-01-15T08:01:07;14.53;;;7.50;;
2480;SDS011;57396;48.742;9.128;2024-01-15T08:03:33;13.90;;;7.50;;
2480;SDS011;57396;48.742;9.128;2024-01-15T08:05:59;12.93;;;7.80;;
2480;SDS011;57396;48.742;9.128;2024-01-15T08:08:24;16.30;;;8.47;;
2480;SDS011;57396;48.742;9.128;2024-01-15T08:10:51;14.00;;;8.70;;
2480;SDS011;57396;48.742;9.128;2024-01-15T08:13:17;20.00;;;9.67;;
2480;SDS011;57396;48.742;9.128;2024-01-15T08:15:43;15.73;;;9.10;;
2480;SDS011;57396;48.742;9.128;2024-01-15T08:18:09;15.63;;;7.33;;
2480;SDS011;57396;48.742;9.128;2024-01-15T08:20:34;16.47;;;8.37;;
2480;SDS011;57396;48.742;9.128;2024-01-15T08:23:00;14.50;;;7.30;;
2480;SDS011;57396;48.742;9.128;2024-01-15T08:25:25;13.80;;;7.93;;
2480;SDS011;57396;48.742;9.128;2024-01-15T08:27:51;20.10;;;7.03;;
2480;SDS011;57396;48.742;9.128;2024-01-15T08:30:17;14.83;;;8.10;;
2480;SDS011;57396;48.742;9.128;2024-01-15T08:32:44;15.70;;;7.57;;
2480;SDS011;57396;48.742;9.128;2024-01-15T08:35:10;16.13;;;8.10;;
2480;SDS011;57396;48.742;9.128;2024-01-15T08:37:35;16.93;;;8.23;;
2480;SDS011;57396;48.742;9.128;2024-01-15T08:40:01;14.70;;;7.50;;
2480;SDS011;57396;48.742;9.128;2024-01-15T08:42:28;13.50;;;7.00;;
2480;SDS011;57396;48.742;9.128;2024-01-15T08:44:53;13.63;;;7.60;;
2480;SDS011;57396;48.742;9.128;2024-01-15T08:47:19;11.07;;;6.80;;
2480;SDS011;57396;48.742;9.128;2024-01-15T08:49:44;10.93;;;6.70;;
2480;SDS011;57396;48.742;9.128;2024-01-15T08:52:11;12.10;;;7.20;;
2480;SDS011;57396;48.742;9.128;2024-01-15T08:54:36;14.63;;;7.17;;
2480;SDS011;57396;48.742;9.128;2024-01-15T08:57:02;12.83;;;6.57;;
2480;SDS011;57396;48.742;9.128;2024-01-15T08:59:27;13.57;;;6.63;;
2480;SDS011;57396;48.742;9.128;2024-01-15T09:01:53;11.20;;;5.87;;
2480;SDS011;57396;48.742;9.128;2024-01-15T09:04:18;11.13;;;5.80;;
2480;SDS011;57396;48.742;9.128;2024-01-15T09:06:45;11.40;;;6.30;;
2480;SDS011;57396;48.742;9.128;2024-01-15T09:09:12;10.10;;;5.90;;
2480;SDS011;57396;48.742;9.128;2024-01-15T09:11:37;17.97;;;5.90;;
2480;SDS011;57396;48.742;9.128;2024-01-15T09:14:03;8.77;;;5.30;;
2480;SDS011;57396;48.742;9.128;2024-01-15T09:16:28;9.53;;;5.50;;
2480;SDS011;57396;48.742;9.128;2024-01-15T09:18:54;16.23;;;5.03;;
2480;SDS011;57396;48.742;9.128;2024-01-15T09:21:22;10.80;;;5.83;;
2480;SDS011;57396;48.742;9.128;2024-01-15T09:23:47;9.40;;;4.53;;
2480;SDS011;57396;48.742;9.128;2024-01-15T09:26:13;10.20;;;5.90;;
2480;SDS011;57396;48.742;9.128;2024-01-15T09:28:38;9.07;;;4.90;;
2480;SDS011;57396;48.742;9.128;2024-01-15T09:31:03;12.43;;;5.23;;
2480;SDS011;57396;48.742;9.128;2024-01-15T09:33:29;9.00;;;4.97;;
2480;SDS011;57396;48.742;9.128;2024-01-15T09:35:54;8.57;;;4.50;;
2480;SDS011;57396;48.742;9.128;2024-01-15T09:38:20;9.07;;;4.90;;
2480;SDS011;57396;48.742;9.128;2024-01-15T09:40:45;7.50;;;4.67;;
2480;SDS011;57396;48.742;9.128;2024-01-15T09:43:12;11.47;;;5.97;;
2480;SDS011;57396;48.742;9.128;2024-01-15T09:45:39;12.47;;;5.13;;
2480;SDS011;57396;48.742;9.128;2024-01-15T09:48:04;7.60;;;5.10;;
2480;SDS011;57396;48.742;9.128;2024-01-15T09:50:30;14.67;;;5.33;;
2480;SDS011;57396;48.742;9.128;2024-01-15T09:52:56;8.20;;;4.90;;
2480;SDS011;57396;48.742;9.128;2024-01-15T09:55:22;8.83;;;5.10;;
2480;SDS011;57396;48.742;9.128;2024-01-15T09:57:48;7.73;;;5.17;;
2480;SDS011;57396;48.742;9.128;2024-01-15T10:00:18;10.40;;;5.13;;
2480;SDS011;57396;48.742;9.128;2024-01-15T10:02:44;15.50;;;5.53;;
2480;SDS011;57396;48.742;9.128;2024-01-15T10:05:09;11.80;;;6.00;;
2480;SDS011;57396;48.742;9.128;2024-01-15T10:07:35;11.30;;;5.47;;
2480;SDS011;57396;48.742;9.128;2024-01-15T10:10:01;13.87;;;5.63;;
2480;SDS011;57396;48.742;9.128;2024-01-15T10:12:28;14.27;;;5.30;;
2480;SDS011;57396;48.742;9.128;2024-01-15T10:14:54;10.50;;;5.27;;
2480;SDS011;57396;48.742;9.128;2024-01-15T10:17:19;9.17;;;5.33;;
2480;SDS011;57396;48.742;9.128;2024-01-15T10:19:45;10.80;;;5.87;;
2480;SDS011;57396;48.742;9.128;2024-01-15T10:22:12;12.50;;;7.23;;
2480;SDS011;57396;48.742;9.128;2024-01-15T10:24:40;8.90;;;5.30;;
2480;SDS011;57396;48.742;9.128;2024-01-15T10:27:09;14.93;;;5.33;;
2480;SDS011;57396;48.742;9.128;2024-01-15T10:29:36;11.07;;;5.87;;
2480;SDS011;57396;48.742;9.128;2024-01-15T10:32:02;12.50;;;4.77;;
2480;SDS011;57396;48.742;9.128;2024-01-15T10:34:30;9.63;;;5.27;;
2480;SDS011;57396;48.742;9.128;2024-01-15T10:36:55;12.47;;;5.80;;
2480;SDS011;57396;48.742;9.128;2024-01-15T10:39:21;14.13;;;4.70;;
2480;SDS011;57396;48.742;9.128;2024-01-15T10:41:47;8.30;;;5.07;;
2480;SDS011;57396;48.742;9.128;2024-01-15T10:44:13;11.90;;;4.93;;
2480;SDS011;57396;48.742;9.128;2024-01-15T10:46:38;10.00;;;5.47;;
2480;SDS011;57396;48.742;9.128;2024-01-15T10:49:04;13.23;;;5.57;;
2480;SDS011;57396;48.742;9.128;2024-01-15T10:51:30;8.60;;;5.07;;
2480;SDS011;57396;48.742;9.128;2024-01-15T10:53:56;9.07;;;5.60;;
2480;SDS011;57396;48.742;9.128;2024-01-15T10:56:22;10.63;;;5.53;;
2480;SDS011;57396;48.742;9.128;2024-01-15T10:58:49;11.00;;;5.97;;
2480;SDS011;57396;48.742;9.128;2024-01-15T11:01:15;11.57;;;5.70;;
2480;SDS011;57396;48.742;9.128;2024-01-15T11:03:42;11.03;;;5.37;;
2480;SDS011;57396;48.742;9.128;2024-01-15T11:06:17;8.50;;;5.90;;
2480;SDS011;57396;48.742;9.128;2024-01-15T11:08:49;10.97;;;5.07;;
2480;SDS011;57396;48.742;9.128;2024-01-15T11:11:17;6.70;;;4.77;;
2480;SDS011;57396;48.742;9.128;2024-01-15T11:13:43;9.83;;;5.43;;
2480;SDS011;57396;48.742;9.128;2024-01-15T11:16:13;10.47;;;5.53;;
2480;SDS011;57396;48.742;9.128;2024-01-15T11:18:40;12.27;;;5.33;;
2480;SDS011;57396;48.742;9.128;2024-01-15T11:23:45;8.50;;;5.50;;
2480;SDS011;57396;48.742;9.128;2024-01-15T11:29:03;10.60;;;6.23;;
2480;SDS011;57396;48.742;9.128;2024-01-15T11:34:02;12.23;;;5.90;;
2480;SDS011;57396;48.742;9.128;2024-01-15T11:42:02;12.47;;;6.70;;
2480;SDS011;57396;48.742;9.128;2024-01-15T11:44:29;14.73;;;7.50;;
2480;SDS011;57396;48.742;9.128;2024-01-15T11:47:02;11.93;;;6.40;;
2480;SDS011;57396;48.742;9.128;2024-01-15T11:51:56;9.37;;;6.20;;
2480;SDS011;57396;48.742;9.128;2024-01-15T11:54:23;14.23;;;7.07;;
2480;SDS011;57396;48.742;9.128;2024-01-15T11:56:49;10.63;;;6.50;;
2480;SDS011;57396;48.742;9.128;2024-01-15T11:59:15;9.67;;;6.33;;
2480;SDS011;57396;48.742;9.128;2024-01-15T12:01:40;13.80;;;6.03;;
2480;SDS011;57396;48.742;9.128;2024-01-15T12:04:06;16.43;;;7.20;;
2480;SDS011;57396;48.742;9.128;2024-01-15T12:06:31;10.33;;;6.80;;
2480;SDS011;57396;48.742;9.128;2024-01-15T12:09:05;13.50;;;6.90;;
2480;SDS011;57396;48.742;9.128;2024-01-15T12:11:31;15.37;;;7.33;;
2480;SDS011;57396;48.742;9.128;2024-01-15T12:13:58;11.30;;;7.00;;
2480;SDS011;57396;48.742;9.128;2024-01-15T12:16:24;11.73;;;6.23;;
2480;SDS011;57396;48.742;9.128;2024-01-15T12:18:50;11.53;;;6.00;;
2480;SDS011;57396;48.742;9.128;2024-01-15T12:21:15;11.93;;;6.10;;
2480;SDS011;57396;48.742;9.128;2024-01-15T12:23:41;8.20;;;6.07;;
2480;SDS011;57396;48.742;9.128;2024-01-15T12:26:06;10.60;;;6.73;;
2480;SDS011;57396;48.742;9.128;2024-01-15T12:28:32;13.93;;;7.33;;
2480;SDS011;57396;48.742;9.128;2024-01-15T12:30:57;10.30;;;6.40;;
2480;SDS011;57396;48.742;9.128;2024-01-15T12:33:25;11.43;;;6.20;;
2480;SDS011;57396;48.742;9.128;2024-01-15T12:35:53;11.60;;;6.70;;
2480;SDS011;57396;48.742;9.128;2024-01-15T12:38:19;9.83;;;6.03;;
2480;SDS011;57396;48.742;9.128;2024-01-15T12:40:45;12.27;;;6.90;;
2480;SDS011;57396;48.742;9.128;2024-01-15T12:43:11;10.90;;;6.90;;
2480;SDS011;57396;48.742;9.128;2024-01-15T12:45:37;11.37;;;6.43;;
2480;SDS011;57396;48.742;9.128;2024-01-15T12:48:05;12.20;;;7.17;;
2480;SDS011;57396;48.742;9.128;2024-01-15T12:50:33;9.07;;;5.90;;
2480;SDS011;57396;48.742;9.128;2024-01-15T12:52:58;14.53;;;7.00;;
2480;SDS011;57396;48.742;9.128;2024-01-15T12:55:24;12.27;;;6.60;;
2480;SDS011;57396;48.742;9.128;2024-01-15T12:57:50;10.90;;;6.60;;
2480;SDS011;57396;48.742;9.128;2024-01-15T13:00:19;11.30;;;5.87;;
2480;SDS011;57396;48.742;9.128;2024-01-15T13:02:45;8.87;;;5.93;;
2480;SDS011;57396;48.742;9.128;2024-01-15T13:05:10;9.60;;;5.80;;
2480;SDS011;57396;48.742;9.128;2024-01-15T13:07:36;12.43;;;6.20;;
2480;SDS011;57396;48.742;9.128;2024-01-15T13:10:02;9.53;;;5.90;;
2480;SDS011;57396;48.742;9.128;2024-01-15T13:12:27;12.80;;;6.33;;
2480;SDS011;57396;48.742;9.128;2024-01-15T13:14:53;10.23;;;5.47;;
2480;SDS011;57396;48.742;9.128;2024-01-15T13:17:18;10.17;;;6.40;;
2480;SDS011;57396;48.742;9.128;2024-01-15T13:19:46;12.30;;;5.03;;
2480;SDS011;57396;48.742;9.128;2024-01-15T13:22:11;10.67;;;5.00;;
2480;SDS011;57396;48.742;9.128;2024-01-15T13:24:39;7.23;;;4.53;;
2480;SDS011;57396;48.742;9.128;2024-01-15T13:27:04;6.00;;;4.30;;
2480;SDS011;57396;48.742;9.128;2024-01-15T13:29:31;8.77;;;4.70;;
2480;SDS011;57396;48.742;9.128;2024-01-15T13:31:56;8.90;;;4.80;;
2480;SDS011;57396;48.742;9.128;2024-01-15T13:34:22;10.07;;;5.00;;
2480;SDS011;57396;48.742;9.128;2024-01-15T13:36:48;17.20;;;4.90;;
2480;SDS011;57396;48.742;9.128;2024-01-15T13:39:15;14.90;;;5.23;;
2480;SDS011;57396;48.742;9.128;2024-01-15T13:41:44;10.73;;;4.90;;
2480;SDS011;57396;48.742;9.128;2024-01-15T13:44:10;8.37;;;5.13;;
2480;SDS011;57396;48.742;9.128;2024-01-15T13:46:36;9.27;;;4.97;;
2480;SDS011;57396;48.742;9.128;2024-01-15T13:49:03;9.27;;;5.50;;
2480;SDS011;57396;48.742;9.128;2024-01-15T13:51:31;9.00;;;4.70;;
2480;SDS011;57396;48.742;9.128;2024-01-15T13:53:56;9.53;;;5.50;;
2480;SDS011;57396;48.742;9.128;2024-01-15T13:56:22;9.70;;;5.40;;
2480;SDS011;57396;48.742;9.128;2024-01-15T13:58:47;7.10;;;4.60;;
2480;SDS011;57396;48.742;9.128;2024-01-15T14:01:13;9.23;;;4.47;;
2480;SDS011;57396;48.742;9.128;2024-01-15T14:03:38;16.53;;;5.30;;
2480;SDS011;57396;48.742;9.128;2024-01-15T14:06:04;11.47;;;5.90;;
2480;SDS011;57396;48.742;9.128;2024-01-15T14:08:34;10.60;;;4.50;;
2480;SDS011;57396;48.742;9.128;2024-01-15T14:11:00;15.97;;;5.40;;
2480;SDS011;57396;48.742;9.128;2024-01-15T14:13:25;7.97;;;4.90;;
2480;SDS011;57396;48.742;9.128;2024-01-15T14:15:51;11.63;;;4.80;;
2480;SDS011;57396;48.742;9.128;2024-01-15T14:18:16;10.73;;;4.90;;
2480;SDS011;57396;48.742;9.128;2024-01-15T14:20:42;8.83;;;4.40;;
2480;SDS011;57396;48.742;9.128;2024-01-15T14:23:08;9.53;;;4.33;;
2480;SDS011;57396;48.742;9.128;2024-01-15T14:25:35;7.23;;;4.67;;
2480;SDS011;57396;48.742;9.128;2024-01-15T14:28:01;5.50;;;4.20;;
2480;SDS011;57396;48.742;9.128;2024-01-15T14:30:26;8.33;;;4.47;;
2480;SDS011;57396;48.742;9.128;2024-01-15T14:32:52;5.10;;;3.50;;
2480;SDS011;57396;48.742;9.128;2024-01-15T14:35:17;6.23;;;3.83;;
2480;SDS011;57396;48.742;9.128;2024-01-15T14:37:43;5.03;;;4.03;;
2480;SDS011;57396;48.742;9.128;2024-01-15T14:40:08;6.80;;;3.43;;
2480;SDS011;57396;48.742;9.128;2024-01-15T14:42:35;11.80;;;4.70;;
2480;SDS011;57396;48.742;9.128;2024-01-15T14:45:01;5.40;;;4.27;;
2480;SDS011;57396;48.742;9.128;2024-01-15T14:47:28;4.63;;;3.93;;
2480;SDS011;57396;48.742;9.128;2024-01-15T14:49:54;6.30;;;4.60;;
2480;SDS011;57396;48.742;9.128;2024-01-15T14:52:21;4.13;;;3.73;;
2480;SDS011;57396;48.742;9.128;2024-01-15T14:54:47;4.07;;;3.47;;
2480;SDS011;57396;48.742;9.128;2024-01-15T14:57:19;4.80;;;3.60;;